createdAt,value
2018-05-08T00:02:51.190Z,57.90
2018-05-08T00:05:53.153Z,57.80
2018-05-08T00:08:55.136Z,57.40
2018-05-08T00:11:57.117Z,57.60
2018-05-08T00:14:59.073Z,57.50
2018-05-08T00:18:01.066Z,57.50
2018-05-08T00:21:03.053Z,57.50
2018-05-08T00:24:05.032Z,58.10
2018-05-08T00:27:06.968Z,57.90
2018-05-08T00:30:08.999Z,57.50
2018-05-08T00:33:10.977Z,57.70
2018-05-08T00:36:12.943Z,57.60
2018-05-08T00:39:15.165Z,57.40
2018-05-08T00:42:17.903Z,57.90
2018-05-08T00:45:19.888Z,57.80
2018-05-08T00:48:21.837Z,57.80
2018-05-08T00:51:23.796Z,57.70
2018-05-08T00:54:37.644Z,57.50
2018-05-08T00:57:39.593Z,57.40
2018-05-08T01:00:41.632Z,57.40
2018-05-08T01:03:43.584Z,57.50
2018-05-08T01:06:46.323Z,57.40
2018-05-08T01:09:48.299Z,57.20
2018-05-08T01:12:50.306Z,57.60
2018-05-08T01:15:52.295Z,57.80
2018-05-08T01:18:54.278Z,58.00
2018-05-08T01:21:56.266Z,58.10
2018-05-08T01:24:58.250Z,58.10
2018-05-08T01:28:00.301Z,60.30
2018-05-08T01:31:02.289Z,60.40
2018-05-08T01:34:04.410Z,60.00
2018-05-08T01:37:06.418Z,60.00
2018-05-08T01:40:08.485Z,59.80
2018-05-08T01:43:10.551Z,58.90
2018-05-08T01:46:12.522Z,59.50
2018-05-08T01:49:14.536Z,58.80
2018-05-08T01:52:16.562Z,59.30
2018-05-08T01:55:18.594Z,59.20
2018-05-08T01:58:21.191Z,59.30
2018-05-08T02:01:23.192Z,59.00
2018-05-08T02:04:25.526Z,59.20
2018-05-08T02:07:27.538Z,58.70
2018-05-08T02:10:29.580Z,58.80
2018-05-08T02:13:31.574Z,58.50
2018-05-08T02:16:33.607Z,58.50
2018-05-08T02:19:35.674Z,58.50
2018-05-08T02:22:37.673Z,58.40
2018-05-08T02:25:39.909Z,58.10
2018-05-08T02:28:41.922Z,57.90
2018-05-08T02:31:43.960Z,58.10
2018-05-08T02:34:45.979Z,58.10
2018-05-08T02:37:48.743Z,58.00
2018-05-08T02:40:50.737Z,58.10
2018-05-08T02:43:52.750Z,58.10
2018-05-08T02:46:54.897Z,58.10
2018-05-08T02:49:56.904Z,58.10
2018-05-08T02:52:58.889Z,58.00
2018-05-08T02:56:00.917Z,57.90
2018-05-08T02:59:02.935Z,57.90
2018-05-08T03:02:05.718Z,57.90
2018-05-08T03:05:07.703Z,57.80
2018-05-08T03:08:09.727Z,58.40
2018-05-08T03:11:11.762Z,58.20
2018-05-08T03:14:13.733Z,57.90
2018-05-08T03:17:15.749Z,58.10
2018-05-08T03:20:17.740Z,57.90
2018-05-08T03:23:20.544Z,57.60
2018-05-08T03:26:22.534Z,57.60
2018-05-08T03:29:24.560Z,58.10
2018-05-08T03:32:27.325Z,58.40
2018-05-08T03:35:30.247Z,58.40
2018-05-08T03:38:32.274Z,58.40
2018-05-08T03:41:34.271Z,58.20
2018-05-08T03:44:37.106Z,58.40
2018-05-08T03:47:39.110Z,58.40
2018-05-08T03:50:42.651Z,58.70
2018-05-08T03:53:44.647Z,58.60
2018-05-08T03:56:46.734Z,58.40
2018-05-08T03:59:48.739Z,58.10
2018-05-08T04:03:03.305Z,58.30
2018-05-08T04:09:43.419Z,58.50
2018-05-08T04:12:45.662Z,58.90
2018-05-08T04:15:47.678Z,59.00
2018-05-08T04:18:50.085Z,58.80
2018-05-08T04:21:52.076Z,58.50
2018-05-08T04:24:54.167Z,59.00
2018-05-08T04:27:56.157Z,58.30
2018-05-08T04:30:58.205Z,58.00
2018-05-08T04:34:00.187Z,57.70
2018-05-08T04:37:02.213Z,57.40
2018-05-08T04:40:04.277Z,57.10
2018-05-08T04:43:07.992Z,56.70
2018-05-08T04:46:10.085Z,56.70
2018-05-08T04:49:12.102Z,56.10
2018-05-08T04:52:14.128Z,55.90
2018-05-08T04:55:16.108Z,55.40
2018-05-08T04:58:18.129Z,55.10
2018-05-08T05:01:20.252Z,54.50
2018-05-08T05:04:22.302Z,53.90
2018-05-08T05:07:24.302Z,53.50
2018-05-08T05:10:26.329Z,53.90
2018-05-08T05:13:28.351Z,53.10
2018-05-08T05:16:30.384Z,52.80
2018-05-08T05:19:32.397Z,52.20
2018-05-08T05:22:34.413Z,51.40
2018-05-08T05:25:36.416Z,51.20
2018-05-08T05:28:38.405Z,50.70
2018-05-08T05:31:40.577Z,50.70
2018-05-08T05:34:42.525Z,50.50
2018-05-08T05:37:44.543Z,49.90
2018-05-08T05:40:46.531Z,47.60
2018-05-08T05:43:48.560Z,45.30
2018-05-08T05:46:50.604Z,44.30
2018-05-08T05:49:52.602Z,44.10
2018-05-08T05:52:55.373Z,45.00
2018-05-08T05:55:57.370Z,44.90
2018-05-08T05:59:00.170Z,46.40
2018-05-08T06:02:02.182Z,46.30
2018-05-08T06:05:04.941Z,44.90
2018-05-08T06:08:06.978Z,44.00
2018-05-08T06:11:09.101Z,41.80
2018-05-08T06:14:11.095Z,39.40
2018-05-08T06:17:13.473Z,37.30
2018-05-08T06:20:16.257Z,31.30
2018-05-08T06:23:19.212Z,31.30
2018-05-08T06:26:21.210Z,30.10
2018-05-08T06:29:23.240Z,29.10
2018-05-08T06:32:25.242Z,27.40
2018-05-08T06:35:27.257Z,25.40
2018-05-08T06:38:29.530Z,23.80
2018-05-08T06:41:33.173Z,22.60
2018-05-08T06:44:35.179Z,21.50
2018-05-08T06:47:37.983Z,19.90
2018-05-08T06:50:40.039Z,19.90
2018-05-08T06:53:42.125Z,19.40
2018-05-08T06:56:44.155Z,18.90
2018-05-08T06:59:46.186Z,18.40
2018-05-08T07:02:48.174Z,18.40
2018-05-08T07:05:50.191Z,18.00
2018-05-08T07:08:52.188Z,18.20
2018-05-08T07:11:54.950Z,18.60
2018-05-08T07:14:57.022Z,19.50
2018-05-08T07:17:59.029Z,19.80
2018-05-08T07:21:02.367Z,20.50
2018-05-08T07:24:04.441Z,20.50
2018-05-08T07:27:06.422Z,20.50
2018-05-08T07:30:08.429Z,20.90
2018-05-08T07:33:10.465Z,20.90
2018-05-08T07:36:12.472Z,21.20
2018-05-08T07:39:14.462Z,21.90
2018-05-08T07:42:16.481Z,22.40
2018-05-08T07:45:18.531Z,23.60
2018-05-08T07:48:21.330Z,24.60
2018-05-08T07:51:23.350Z,24.80
2018-05-08T07:54:25.591Z,24.70
2018-05-08T07:57:27.582Z,25.30
2018-05-08T08:00:29.603Z,25.30
2018-05-08T08:03:31.592Z,25.70
2018-05-08T08:06:33.625Z,26.50
2018-05-08T08:09:35.628Z,27.30
2018-05-08T08:12:37.801Z,28.20
2018-05-08T08:15:39.803Z,28.90
2018-05-08T08:18:41.821Z,29.70
2018-05-08T08:21:43.821Z,29.70
2018-05-08T08:24:45.854Z,29.80
2018-05-08T08:27:47.859Z,30.40
2018-05-08T08:30:50.068Z,30.40
2018-05-08T08:33:52.107Z,30.40
2018-05-08T08:36:54.124Z,30.30
2018-05-08T08:39:56.393Z,30.00
2018-05-08T08:46:06.653Z,29.90
2018-05-08T08:49:08.686Z,29.70
2018-05-08T08:52:10.765Z,29.90
2018-05-08T08:55:12.783Z,29.70
2018-05-08T08:58:14.825Z,30.00
2018-05-08T09:01:17.032Z,29.70
2018-05-08T09:04:19.019Z,29.70
2018-05-08T09:07:21.019Z,29.80
2018-05-08T09:10:23.096Z,29.50
2018-05-08T09:13:25.094Z,29.60
2018-05-08T09:16:27.118Z,29.70
2018-05-08T09:19:29.111Z,29.80
2018-05-08T09:22:31.120Z,29.70
2018-05-08T09:25:33.126Z,29.40
2018-05-08T09:28:35.160Z,29.30
2018-05-08T09:31:37.172Z,29.20
2018-05-08T09:34:39.205Z,29.30
2018-05-08T09:37:41.211Z,29.30
2018-05-08T09:40:43.223Z,29.70
2018-05-08T09:43:45.315Z,29.10
2018-05-08T09:46:47.627Z,29.00
2018-05-08T09:49:50.416Z,28.90
2018-05-08T09:52:52.438Z,28.90
2018-05-08T09:55:54.688Z,29.10
2018-05-08T09:58:56.731Z,29.00
2018-05-08T10:01:58.727Z,29.00
2018-05-08T10:05:00.971Z,29.50
2018-05-08T10:08:03.640Z,28.90
2018-05-08T10:11:05.762Z,28.90
2018-05-08T10:14:07.801Z,28.10
2018-05-08T10:17:09.805Z,28.00
2018-05-08T10:20:11.831Z,28.40
2018-05-08T10:23:13.896Z,28.70
2018-05-08T10:26:15.905Z,28.90
2018-05-08T10:29:17.969Z,28.30
2018-05-08T10:32:20.023Z,28.90
2018-05-08T10:35:22.112Z,29.30
2018-05-08T10:38:24.123Z,29.40
2018-05-08T10:41:26.151Z,29.00
2018-05-08T10:44:28.153Z,29.00
2018-05-08T10:47:30.206Z,28.70
2018-05-08T10:50:32.196Z,29.00
2018-05-08T10:53:34.199Z,29.10
2018-05-08T10:56:36.174Z,28.30
2018-05-08T10:59:38.934Z,28.40
2018-05-08T11:02:40.964Z,28.40
2018-05-08T11:05:42.945Z,28.50
2018-05-08T11:08:44.928Z,28.20
2018-05-08T11:11:46.917Z,28.00
2018-05-08T11:14:48.880Z,27.50
2018-05-08T11:17:50.995Z,27.30
2018-05-08T11:20:52.979Z,26.90
2018-05-08T11:23:55.431Z,26.80
2018-05-08T11:26:57.425Z,27.70
2018-05-08T11:29:59.398Z,27.70
2018-05-08T11:33:01.417Z,28.00
2018-05-08T11:36:04.198Z,28.70
2018-05-08T11:39:06.205Z,28.60
2018-05-08T11:42:08.193Z,29.70
2018-05-08T11:45:10.183Z,29.60
2018-05-08T11:48:12.163Z,29.30
2018-05-08T11:51:14.199Z,30.00
2018-05-08T11:54:16.171Z,30.30
2018-05-08T11:57:18.283Z,30.40
2018-05-08T12:00:21.046Z,31.10
2018-05-08T12:03:24.549Z,31.00
2018-05-08T12:06:26.524Z,31.00
2018-05-08T12:09:28.591Z,31.40
2018-05-08T12:12:30.570Z,30.90
2018-05-08T12:15:32.577Z,30.30
2018-05-08T12:18:34.552Z,30.30
2018-05-08T12:21:36.590Z,29.70
2018-05-08T12:24:38.591Z,31.00
2018-05-08T12:27:40.731Z,31.50
2018-05-08T12:30:42.893Z,32.00
2018-05-08T12:33:45.001Z,32.70
2018-05-08T12:36:47.443Z,32.40
2018-05-08T12:39:51.565Z,32.40
2018-05-08T12:42:53.547Z,32.40
2018-05-08T12:45:55.810Z,32.00
2018-05-08T12:48:57.878Z,32.40
2018-05-08T12:51:59.877Z,32.20
2018-05-08T12:55:01.919Z,31.70
2018-05-08T12:58:04.913Z,31.50
2018-05-08T13:01:07.181Z,32.10
2018-05-08T13:04:09.251Z,31.80
2018-05-08T13:07:11.322Z,32.30
2018-05-08T13:10:13.304Z,31.70
2018-05-08T13:13:15.307Z,31.50
2018-05-08T13:16:17.349Z,31.30
2018-05-08T13:19:19.336Z,31.00
2018-05-08T13:22:21.334Z,30.50
2018-05-08T13:25:24.105Z,30.00
2018-05-08T13:28:26.104Z,30.00
2018-05-08T13:31:28.834Z,30.10
2018-05-08T13:34:30.893Z,30.10
2018-05-08T13:37:32.928Z,30.40
2018-05-08T13:40:35.739Z,31.70
2018-05-08T13:43:37.730Z,31.60
2018-05-08T13:46:39.751Z,31.90
2018-05-08T13:49:42.490Z,31.10
2018-05-08T13:52:44.501Z,31.00
2018-05-08T13:55:47.254Z,30.80
2018-05-08T13:58:50.193Z,31.50
2018-05-08T14:01:52.215Z,31.50
2018-05-08T14:04:54.210Z,32.20
2018-05-08T14:07:56.953Z,34.90
2018-05-08T14:10:58.966Z,34.80
2018-05-08T14:14:01.754Z,42.50
2018-05-08T14:17:03.749Z,42.50
2018-05-08T14:20:05.741Z,42.20
2018-05-08T14:23:07.745Z,42.20
2018-05-08T14:26:10.521Z,43.00
2018-05-08T14:29:12.558Z,42.90
2018-05-08T14:32:14.534Z,44.30
2018-05-08T14:35:16.539Z,43.70
2018-05-08T14:38:18.521Z,43.70
2018-05-08T14:41:20.531Z,43.20
2018-05-08T14:44:22.533Z,40.40
2018-05-08T14:47:24.640Z,40.30
2018-05-08T14:50:26.803Z,40.20
2018-05-08T14:53:28.774Z,39.70
2018-05-08T14:56:30.776Z,39.40
2018-05-08T14:59:32.770Z,39.90
2018-05-08T15:02:35.399Z,39.50
2018-05-08T15:05:37.565Z,38.80
2018-05-08T15:08:39.598Z,39.20
2018-05-08T15:11:41.697Z,39.00
2018-05-08T15:14:43.692Z,38.10
2018-05-08T15:17:46.468Z,37.40
2018-05-08T15:20:48.520Z,37.10
2018-05-08T15:23:51.947Z,37.80
2018-05-08T15:26:53.951Z,38.20
2018-05-08T15:29:57.471Z,36.10
2018-05-08T15:32:59.743Z,36.10
2018-05-08T15:36:02.772Z,36.80
2018-05-08T15:39:04.856Z,37.50
2018-05-08T15:42:06.851Z,38.00
2018-05-08T15:45:08.840Z,37.40
2018-05-08T15:48:10.839Z,37.60
2018-05-08T15:51:12.911Z,37.70
2018-05-08T15:54:14.894Z,37.40
2018-05-08T15:57:16.882Z,37.40
2018-05-08T16:00:18.887Z,37.10
2018-05-08T16:03:20.886Z,37.10
2018-05-08T16:06:22.931Z,39.70
2018-05-08T16:09:26.043Z,38.00
2018-05-08T16:12:28.028Z,38.00
2018-05-08T16:15:30.165Z,37.90
2018-05-08T16:18:32.939Z,38.00
2018-05-08T16:21:36.289Z,40.00
2018-05-08T16:24:38.301Z,39.90
2018-05-08T16:27:40.269Z,40.40
2018-05-08T16:30:42.292Z,40.70
2018-05-08T16:33:44.318Z,40.70
2018-05-08T16:36:46.328Z,40.60
2018-05-08T16:39:48.355Z,40.30
2018-05-08T16:42:51.140Z,40.00
2018-05-08T16:45:53.163Z,40.00
2018-05-08T16:48:55.154Z,40.50
2018-05-08T16:51:57.208Z,40.90
2018-05-08T16:54:59.232Z,41.20
2018-05-08T16:58:01.243Z,41.80
2018-05-08T17:01:03.341Z,43.10
2018-05-08T17:04:05.345Z,43.70
2018-05-08T17:07:08.433Z,44.20
2018-05-08T17:10:10.416Z,44.40
2018-05-08T17:13:12.451Z,44.90
2018-05-08T17:16:14.525Z,45.50
2018-05-08T17:19:16.569Z,45.90
2018-05-08T17:22:18.585Z,46.40
2018-05-08T17:25:20.576Z,45.20
2018-05-08T17:28:22.561Z,47.40
2018-05-08T17:31:24.576Z,48.10
2018-05-08T17:34:26.584Z,48.80
2018-05-08T17:37:28.599Z,50.80
2018-05-08T17:40:30.589Z,51.80
2018-05-08T17:43:32.624Z,53.50
2018-05-08T17:46:34.656Z,53.70
2018-05-08T17:49:36.652Z,53.60
2018-05-08T17:52:39.486Z,52.90
2018-05-08T17:55:41.477Z,53.00
2018-05-08T17:58:43.486Z,53.50
2018-05-08T18:01:45.478Z,54.30
2018-05-08T18:04:47.477Z,54.80
2018-05-08T18:07:49.487Z,55.00
2018-05-08T18:10:51.835Z,55.00
2018-05-08T18:13:53.872Z,54.90
2018-05-08T18:16:55.929Z,54.80
2018-05-08T18:19:57.930Z,54.90
2018-05-08T18:22:59.923Z,54.60
2018-05-08T18:26:02.143Z,54.60
2018-05-08T18:29:04.132Z,54.20
2018-05-08T18:32:06.156Z,54.00
2018-05-08T18:35:11.231Z,54.40
2018-05-08T18:38:16.789Z,54.30
2018-05-08T18:41:19.367Z,54.50
2018-05-08T18:44:21.419Z,54.70
2018-05-08T18:47:23.393Z,54.80
2018-05-08T18:50:25.705Z,54.80
2018-05-08T18:53:27.707Z,54.90
2018-05-08T18:56:29.703Z,55.10
2018-05-08T18:59:31.768Z,55.00
2018-05-08T19:02:33.830Z,55.00
2018-05-08T19:05:35.833Z,55.20
2018-05-08T19:08:37.894Z,55.40
2018-05-08T19:11:39.936Z,55.70
2018-05-08T19:14:42.029Z,55.60
2018-05-08T19:17:44.079Z,55.40
2018-05-08T19:20:46.128Z,55.50
2018-05-08T19:23:48.224Z,55.40
2018-05-08T19:26:50.234Z,55.60
2018-05-08T19:29:52.220Z,55.00
2018-05-08T19:32:54.280Z,54.80
2018-05-08T19:35:56.350Z,55.00
2018-05-08T19:38:58.463Z,55.00
2018-05-08T19:42:00.636Z,54.60
2018-05-08T19:45:02.722Z,54.70
2018-05-08T19:48:04.766Z,55.00
2018-05-08T19:51:06.784Z,54.70
2018-05-08T19:54:08.763Z,54.90
2018-05-08T19:57:11.055Z,55.00
2018-05-08T20:00:13.191Z,55.70
2018-05-08T20:03:15.191Z,55.20
2018-05-08T20:06:17.283Z,55.30
2018-05-08T20:09:19.324Z,55.60
2018-05-08T20:12:21.340Z,55.30
2018-05-08T20:15:23.366Z,54.70
2018-05-08T20:18:25.475Z,54.50
2018-05-08T20:21:27.557Z,54.30
2018-05-08T20:24:29.571Z,54.00
2018-05-08T20:27:32.357Z,53.60
2018-05-08T20:30:34.431Z,53.60
2018-05-08T20:33:36.433Z,53.50
2018-05-08T20:36:38.471Z,53.90
2018-05-08T20:39:40.472Z,55.00
2018-05-08T20:42:42.475Z,54.70
2018-05-08T20:45:44.456Z,54.70
2018-05-08T20:48:46.583Z,54.40
2018-05-08T20:51:48.575Z,54.60
2018-05-08T20:54:50.546Z,54.70
2018-05-08T20:57:52.551Z,54.60
2018-05-08T21:00:54.566Z,54.50
2018-05-08T21:03:56.614Z,54.20
2018-05-08T21:06:58.680Z,54.30
2018-05-08T21:10:00.712Z,54.20
2018-05-08T21:13:02.702Z,54.40
2018-05-08T21:16:04.690Z,54.60
2018-05-08T21:19:06.705Z,54.80
2018-05-08T21:22:08.736Z,54.90
2018-05-08T21:25:10.705Z,54.90
2018-05-08T21:28:12.870Z,55.30
2018-05-08T21:31:14.884Z,55.20
2018-05-08T21:34:16.884Z,55.40
2018-05-08T21:37:19.665Z,55.40
2018-05-08T21:40:21.655Z,55.40
2018-05-08T21:43:23.627Z,55.70
2018-05-08T21:46:25.658Z,55.80
2018-05-08T21:49:27.651Z,56.00
2018-05-08T21:52:30.415Z,56.40
2018-05-08T21:55:32.476Z,56.40
2018-05-08T21:58:34.471Z,56.70
2018-05-08T22:01:37.205Z,57.30
2018-05-08T22:04:39.249Z,57.30
2018-05-08T22:07:41.379Z,57.40
2018-05-08T22:10:43.391Z,57.80
2018-05-08T22:13:45.384Z,58.10
2018-05-08T22:16:47.427Z,58.50
2018-05-08T22:19:49.485Z,59.10
2018-05-08T22:22:51.493Z,59.30
2018-05-08T22:25:53.476Z,59.60
2018-05-08T22:28:55.533Z,59.90
2018-05-08T22:31:57.527Z,60.10
2018-05-08T22:34:59.559Z,60.70
2018-05-08T22:38:01.593Z,61.00
2018-05-08T22:41:03.639Z,61.20
2018-05-08T22:44:06.381Z,61.50
2018-05-08T22:47:08.463Z,61.40
2018-05-08T22:50:10.431Z,61.80
2018-05-08T22:53:12.449Z,61.80
2018-05-08T22:56:14.429Z,62.00
2018-05-08T22:59:16.444Z,62.90
2018-05-08T23:02:18.419Z,64.30
2018-05-08T23:05:20.442Z,64.20
2018-05-08T23:08:22.540Z,63.70
2018-05-08T23:11:24.545Z,63.70
2018-05-08T23:14:27.302Z,63.60
2018-05-08T23:17:29.314Z,63.50
2018-05-08T23:20:31.306Z,63.10
2018-05-08T23:23:33.431Z,63.60
2018-05-08T23:26:36.188Z,63.50
2018-05-08T23:29:38.190Z,63.50
2018-05-08T23:32:40.964Z,63.40
2018-05-08T23:35:42.960Z,63.40
2018-05-08T23:38:45.039Z,63.40
2018-05-08T23:41:47.023Z,62.60
2018-05-08T23:44:49.014Z,62.40
2018-05-08T23:47:51.003Z,62.90
2018-05-08T23:50:53.007Z,62.10
2018-05-08T23:53:54.970Z,62.30
2018-05-08T23:56:56.959Z,62.60
2018-05-08T23:59:58.922Z,62.90
